createdAt,value
2022-10-11T00:01:20.760Z,94.34
2022-10-11T00:06:22.404Z,94.62
2022-10-11T00:11:23.936Z,94.82
2022-10-11T00:16:25.489Z,95.04
2022-10-11T00:21:27.172Z,95.27
2022-10-11T00:26:29.307Z,95.21
2022-10-11T00:31:35.373Z,95.46
2022-10-11T00:36:37.493Z,95.68
2022-10-11T00:41:39.075Z,96.39
2022-10-11T00:46:44.478Z,97.02
2022-10-11T00:51:51.217Z,96.67
2022-10-11T00:57:03.611Z,97.37
2022-10-11T01:02:06.720Z,97.40
2022-10-11T01:07:09.572Z,97.77
2022-10-11T01:12:23.071Z,98.74
2022-10-11T01:18:22.046Z,98.58
2022-10-11T01:23:35.584Z,98.96
2022-10-11T01:29:11.780Z,99.08
2022-10-11T01:34:34.158Z,99.69
2022-10-11T01:39:52.113Z,99.37
2022-10-11T01:44:55.252Z,99.97
2022-10-11T01:49:59.673Z,99.76
2022-10-11T01:55:23.647Z,100.00
2022-10-11T02:00:31.890Z,100.00
2022-10-11T02:06:10.420Z,100.00
2022-10-11T02:11:31.537Z,100.00
2022-10-11T02:16:43.665Z,100.00
2022-10-11T02:21:50.810Z,100.00
2022-10-11T02:26:55.683Z,100.00
2022-10-11T02:31:59.457Z,100.00
2022-10-11T02:37:11.953Z,100.00
2022-10-11T02:42:26.890Z,100.00
2022-10-11T02:47:31.006Z,100.00
2022-10-11T02:52:32.545Z,100.00
2022-10-11T02:57:34.156Z,100.00
2022-10-11T03:02:35.765Z,100.00
2022-10-11T03:07:37.442Z,100.00
2022-10-11T03:12:38.985Z,100.00
2022-10-11T03:17:40.528Z,100.00
2022-10-11T03:22:42.035Z,100.00
2022-10-11T03:27:43.597Z,100.00
2022-10-11T03:32:45.536Z,100.00
2022-10-11T03:37:47.099Z,100.00
2022-10-11T03:42:48.631Z,100.00
2022-10-11T03:47:50.200Z,100.00
2022-10-11T03:52:51.756Z,100.00
2022-10-11T03:57:53.438Z,100.00
2022-10-11T04:02:57.324Z,100.00
2022-10-11T04:07:58.843Z,100.00
2022-10-11T04:13:00.397Z,100.00
2022-10-11T04:18:01.916Z,100.00
2022-10-11T04:23:03.534Z,100.00
2022-10-11T04:28:05.218Z,100.00
2022-10-11T04:33:06.853Z,100.00
2022-10-11T04:38:08.496Z,100.00
2022-10-11T04:43:10.073Z,100.00
2022-10-11T04:48:11.680Z,100.00
2022-10-11T04:53:13.205Z,100.00
2022-10-11T04:58:14.763Z,100.00
2022-10-11T05:03:16.279Z,100.00
2022-10-11T05:08:17.836Z,100.00
2022-10-11T05:13:19.353Z,100.00
2022-10-11T05:18:21.411Z,100.00
2022-10-11T05:23:22.935Z,100.00
2022-10-11T05:28:24.755Z,100.00
2022-10-11T05:33:26.653Z,100.00
2022-10-11T05:38:28.628Z,100.00
2022-10-11T05:43:33.035Z,100.00
2022-10-11T05:48:34.556Z,100.00
2022-10-11T05:53:37.975Z,100.00
2022-10-11T05:58:39.689Z,100.00
2022-10-11T06:03:41.216Z,100.00
2022-10-11T06:08:43.061Z,100.00
2022-10-11T06:13:44.810Z,100.00
2022-10-11T06:18:46.486Z,100.00
2022-10-11T06:23:50.397Z,100.00
2022-10-11T06:28:52.837Z,100.00
2022-10-11T06:33:54.411Z,100.00
2022-10-11T06:38:56.142Z,100.00
2022-10-11T06:43:57.995Z,100.00
2022-10-11T06:48:59.525Z,100.00
2022-10-11T06:54:02.175Z,100.00
2022-10-11T06:59:03.899Z,100.00
2022-10-11T07:04:05.602Z,100.00
2022-10-11T07:09:07.830Z,100.00
2022-10-11T07:14:09.609Z,99.88
2022-10-11T07:19:11.260Z,97.77
2022-10-11T07:24:12.785Z,96.27
2022-10-11T07:29:14.385Z,95.36
2022-10-11T07:34:16.060Z,93.58
2022-10-11T07:39:17.641Z,91.37
2022-10-11T07:44:19.156Z,91.33
2022-10-11T07:49:20.711Z,92.03
2022-10-11T07:54:49.970Z,90.47
2022-10-11T07:59:51.604Z,88.92
2022-10-11T08:04:53.154Z,89.59
2022-10-11T08:09:54.827Z,88.78
2022-10-11T08:14:56.652Z,88.38
2022-10-11T08:19:58.207Z,87.24
2022-10-11T08:24:59.805Z,87.51
2022-10-11T08:30:01.498Z,85.63
2022-10-11T08:35:03.267Z,85.95
2022-10-11T08:40:05.945Z,85.67
2022-10-11T08:45:11.905Z,85.94
2022-10-11T08:50:23.867Z,85.72
2022-10-11T08:55:45.798Z,85.81
2022-10-11T09:00:50.205Z,85.34
2022-10-11T09:06:12.567Z,85.38
2022-10-11T09:17:08.469Z,85.08
2022-10-11T09:22:24.739Z,85.40
2022-10-11T09:28:03.275Z,85.65
2022-10-11T09:33:19.121Z,85.72
2022-10-11T09:38:46.410Z,84.32
2022-10-11T09:43:50.973Z,84.65
2022-10-11T09:48:56.212Z,82.93
2022-10-11T09:54:04.828Z,82.16
2022-10-11T09:59:24.061Z,81.01
2022-10-11T10:04:25.624Z,81.95
2022-10-11T10:09:30.926Z,81.87
2022-10-11T10:14:32.497Z,82.13
2022-10-11T10:19:44.913Z,83.13
2022-10-11T10:24:48.877Z,83.18
2022-10-11T10:30:16.230Z,83.68
2022-10-11T10:35:29.670Z,83.01
2022-10-11T10:40:39.451Z,83.78
2022-10-11T10:45:59.843Z,83.58
2022-10-11T10:51:16.786Z,84.25
2022-10-11T10:56:46.032Z,84.60
2022-10-11T11:02:21.493Z,84.85
2022-10-11T11:07:33.001Z,84.13
2022-10-11T11:13:12.116Z,83.88
2022-10-11T11:18:36.502Z,83.48
2022-10-11T11:23:59.188Z,82.93
2022-10-11T11:29:08.906Z,82.68
2022-10-11T11:34:28.493Z,82.69
2022-10-11T11:39:34.832Z,81.89
2022-10-11T11:44:41.396Z,83.07
2022-10-11T11:50:03.825Z,83.46
2022-10-11T11:55:16.820Z,83.60
2022-10-11T12:00:22.126Z,82.03
2022-10-11T12:05:29.021Z,82.25
2022-10-11T12:10:51.956Z,82.63
2022-10-11T12:16:11.872Z,81.53
2022-10-11T12:21:25.808Z,80.87
2022-10-11T12:26:27.273Z,80.65
2022-10-11T12:31:32.357Z,80.03
2022-10-11T12:36:46.964Z,80.44
2022-10-11T12:41:56.091Z,80.17
2022-10-11T12:46:57.893Z,80.98
2022-10-11T12:52:17.783Z,80.13
2022-10-11T12:57:39.642Z,81.21
2022-10-11T13:02:44.082Z,81.19
2022-10-11T13:07:46.573Z,81.17
2022-10-11T13:12:53.129Z,81.58
2022-10-11T13:17:59.622Z,81.47
2022-10-11T13:23:02.944Z,81.72
2022-10-11T13:28:08.875Z,80.37
2022-10-11T13:33:23.580Z,81.66
2022-10-11T13:38:34.205Z,80.22
2022-10-11T13:43:36.606Z,79.75
2022-10-11T13:48:43.956Z,80.02
2022-10-11T13:54:13.144Z,80.23
2022-10-11T13:59:18.282Z,80.11
2022-10-11T14:04:19.877Z,80.48
2022-10-11T14:09:30.490Z,80.36
2022-10-11T14:14:35.655Z,80.33
2022-10-11T14:19:37.536Z,80.76
2022-10-11T14:24:39.055Z,81.66
2022-10-11T14:30:00.341Z,81.15
2022-10-11T14:35:06.877Z,82.21
2022-10-11T14:40:15.315Z,81.68
2022-10-11T14:45:17.699Z,83.05
2022-10-11T14:51:01.018Z,81.88
2022-10-11T14:56:02.842Z,81.92
2022-10-11T15:01:04.669Z,82.77
2022-10-11T15:06:07.792Z,82.58
2022-10-11T15:11:11.705Z,82.35
2022-10-11T15:16:15.819Z,82.69
2022-10-11T15:21:23.094Z,83.02
2022-10-11T15:26:27.198Z,83.23
2022-10-11T15:31:28.748Z,83.41
2022-10-11T15:36:30.671Z,84.48
2022-10-11T15:41:32.200Z,84.50
2022-10-11T15:46:33.709Z,85.54
2022-10-11T15:51:35.198Z,85.90
2022-10-11T15:56:37.860Z,85.93
2022-10-11T16:01:39.762Z,86.61
2022-10-11T16:06:41.384Z,87.82
2022-10-11T16:11:45.054Z,88.13
2022-10-11T16:16:46.616Z,88.48
2022-10-11T16:21:48.142Z,88.33
2022-10-11T16:26:49.643Z,88.84
2022-10-11T16:31:51.230Z,90.05
2022-10-11T16:36:52.819Z,89.25
2022-10-11T16:41:54.369Z,87.67
2022-10-11T16:46:56.013Z,85.83
2022-10-11T16:52:03.791Z,86.24
2022-10-11T16:57:05.448Z,85.66
2022-10-11T17:02:09.781Z,86.34
2022-10-11T17:07:14.967Z,85.99
2022-10-11T17:12:20.222Z,85.29
2022-10-11T17:17:21.739Z,85.16
2022-10-11T17:22:23.369Z,85.42
2022-10-11T17:27:24.921Z,85.96
2022-10-11T17:32:26.440Z,85.72
2022-10-11T17:37:28.021Z,86.55
2022-10-11T17:42:29.535Z,87.51
2022-10-11T17:47:31.059Z,88.59
2022-10-11T17:52:32.599Z,90.09
2022-10-11T17:57:34.132Z,91.03
2022-10-11T18:02:35.717Z,90.95
2022-10-11T18:07:37.235Z,91.33
2022-10-11T18:12:38.823Z,92.05
2022-10-11T18:17:40.327Z,92.35
2022-10-11T18:22:41.871Z,94.15
2022-10-11T18:27:43.375Z,95.55
2022-10-11T18:32:45.016Z,96.61
2022-10-11T18:37:46.590Z,98.21
2022-10-11T18:42:48.144Z,100.00
2022-10-11T18:47:51.069Z,100.00
2022-10-11T18:52:52.719Z,100.00
2022-10-11T18:57:54.356Z,100.00
2022-10-11T19:02:56.159Z,100.00
2022-10-11T19:07:57.724Z,100.00
2022-10-11T19:12:59.454Z,100.00
2022-10-11T19:18:00.968Z,100.00
2022-10-11T19:23:02.485Z,100.00
2022-10-11T19:28:04.159Z,100.00
2022-10-11T19:33:05.749Z,100.00
2022-10-11T19:38:07.299Z,100.00
2022-10-11T19:43:08.827Z,100.00
2022-10-11T19:48:11.475Z,100.00
2022-10-11T19:53:15.144Z,100.00
2022-10-11T19:58:17.363Z,100.00
2022-10-11T20:03:18.907Z,100.00
2022-10-11T20:08:20.431Z,100.00
2022-10-11T20:13:22.034Z,100.00
2022-10-11T20:18:24.536Z,100.00
2022-10-11T20:23:27.729Z,100.00
2022-10-11T20:28:31.675Z,100.00
2022-10-11T20:33:33.612Z,100.00
2022-10-11T20:38:37.206Z,100.00
2022-10-11T20:43:41.040Z,100.00
2022-10-11T20:48:46.741Z,100.00
2022-10-11T20:53:49.396Z,100.00
2022-10-11T20:58:52.851Z,100.00
2022-10-11T21:03:56.878Z,100.00
2022-10-11T21:08:59.648Z,100.00
2022-10-11T21:14:05.838Z,100.00
2022-10-11T21:19:07.441Z,100.00
2022-10-11T21:24:09.299Z,100.00
2022-10-11T21:29:10.868Z,100.00
2022-10-11T21:34:12.421Z,100.00
2022-10-11T21:39:14.016Z,100.00
2022-10-11T21:44:15.784Z,100.00
2022-10-11T21:49:18.106Z,100.00
2022-10-11T21:54:19.637Z,100.00
2022-10-11T21:59:21.203Z,100.00
2022-10-11T22:04:22.747Z,100.00
2022-10-11T22:09:24.383Z,100.00
2022-10-11T22:14:26.807Z,100.00
2022-10-11T22:19:28.316Z,100.00
2022-10-11T22:24:29.971Z,100.00
2022-10-11T22:29:34.174Z,100.00
2022-10-11T22:34:36.067Z,100.00
2022-10-11T22:39:37.600Z,100.00
2022-10-11T22:44:39.128Z,100.00
2022-10-11T22:49:40.638Z,100.00
2022-10-11T22:54:42.304Z,100.00
2022-10-11T22:59:43.837Z,100.00
2022-10-11T23:04:45.377Z,100.00
2022-10-11T23:09:46.954Z,100.00
2022-10-11T23:14:48.487Z,100.00
2022-10-11T23:19:50.049Z,100.00
2022-10-11T23:24:51.639Z,100.00
2022-10-11T23:29:53.264Z,100.00
2022-10-11T23:34:54.856Z,100.00
2022-10-11T23:39:56.376Z,100.00
2022-10-11T23:44:57.897Z,100.00
2022-10-11T23:49:59.430Z,100.00
2022-10-11T23:55:00.940Z,100.00
